Time;durP1;ratioP1;P1;durP2;ratioP2;P2;SDS_P1;SDS_P2;PMS_P1;PMS_P2;Temp;Humidity;BMP_temperature;BMP_pressure;BME280_temperature;BME280_humidity;BME280_pressure;Samples;Min_cycle;Max_cycle;Signal;HPM_P1;HPM_P2
2023/05/21 00:05:36;;;;;;;2.63;1.77;;;;;;;24.32;39.87;101068.81;20916259;28;20044;-65
2023/05/21 00:15:38;;;;;;;2.13;1.85;;;;;;;24.32;40.01;101086.41;20915605;28;20041;-65
2023/05/21 00:25:39;;;;;;;1.67;1.58;;;;;;;24.35;40.15;101059.81;20914373;28;20388;-65
2023/05/21 00:35:41;;;;;;;3.70;1.98;;;;;;;24.31;40.80;101055.97;20914104;28;20492;-65
2023/05/21 00:45:47;;;;;;;3.75;1.50;;;;;;;24.30;40.75;101049.53;20912523;28;20037;-65
2023/05/21 00:55:49;;;;;;;3.67;1.73;;;;;;;23.94;40.72;100992.47;20912190;28;20037;-65
2023/05/21 01:05:58;;;;;;;3.40;2.05;;;;;;;24.33;40.78;101073.28;20911531;28;20044;-65
2023/05/21 01:16:05;;;;;;;4.43;2.10;;;;;;;23.99;41.00;101015.56;20910662;28;20072;-65
2023/05/21 01:26:07;;;;;;;2.50;1.92;;;;;;;24.33;41.06;101071.31;20910637;28;20041;-65
2023/05/21 01:36:33;;;;;;;1.77;1.67;;;;;;;24.28;40.97;101063.00;20908559;28;20065;-64
2023/05/21 01:46:35;;;;;;;2.15;1.95;;;;;;;24.35;40.67;101069.03;20909838;28;20059;-65
2023/05/21 01:56:37;;;;;;;1.88;1.77;;;;;;;24.32;40.92;101066.84;20918003;28;20045;-65
2023/05/21 02:06:38;;;;;;;1.85;1.75;;;;;;;24.32;40.41;101089.22;20924096;28;20060;-65
2023/05/21 02:16:40;;;;;;;2.00;1.90;;;;;;;24.28;40.78;101088.19;20925083;28;20041;-65
2023/05/21 02:26:42;;;;;;;2.35;1.77;;;;;;;24.28;40.65;101099.38;20924173;28;20099;-65
2023/05/21 02:36:43;;;;;;;2.33;2.13;;;;;;;24.29;40.62;101103.81;20923203;28;20049;-65
2023/05/21 02:46:44;;;;;;;2.08;1.88;;;;;;;24.25;40.70;101079.56;20922434;28;20036;-65
2023/05/21 02:56:46;;;;;;;2.38;2.17;;;;;;;24.18;40.83;101077.09;20921926;28;20037;-65
2023/05/21 03:06:53;;;;;;;2.15;1.95;;;;;;;24.22;40.94;101100.53;20920803;28;20095;-65
2023/05/21 03:16:55;;;;;;;2.43;2.13;;;;;;;24.28;40.71;101106.91;20920128;28;20167;-65
2023/05/21 03:26:56;;;;;;;2.47;2.28;;;;;;;24.16;41.11;101087.78;20919125;28;20107;-65
2023/05/21 03:36:57;;;;;;;2.30;2.10;;;;;;;24.12;41.28;101109.06;20917635;28;20369;-65
2023/05/21 03:46:59;;;;;;;2.53;1.90;;;;;;;24.25;41.26;101119.53;20918356;28;20032;-64
2023/05/21 03:57:00;;;;;;;2.17;2.00;;;;;;;24.22;40.90;101125.72;20916692;28;20330;-65
2023/05/21 04:07:03;;;;;;;2.17;1.92;;;;;;;24.26;41.34;101160.34;20916711;28;20029;-66
2023/05/21 04:17:04;;;;;;;2.50;2.30;;;;;;;24.31;41.17;101160.28;20914856;28;20322;-64
2023/05/21 04:27:08;;;;;;;2.50;2.30;;;;;;;24.22;40.79;101144.47;20915739;28;20044;-64
2023/05/21 04:37:10;;;;;;;2.78;2.47;;;;;;;24.14;40.83;101151.53;20914424;28;20045;-65
2023/05/21 04:47:13;;;;;;;2.92;2.72;;;;;;;24.34;40.66;101168.06;20913158;28;20037;-65
2023/05/21 04:57:17;;;;;;;3.08;2.70;;;;;;;24.26;40.99;101182.72;20912464;28;20045;-65
2023/05/21 05:07:18;;;;;;;3.33;2.92;;;;;;;24.34;40.71;101184.03;20911761;28;20178;-65
2023/05/21 05:17:26;;;;;;;3.17;2.88;;;;;;;24.34;40.77;101182.06;20911038;28;20040;-65
2023/05/21 05:27:27;;;;;;;2.90;2.70;;;;;;;24.33;41.17;101204.75;20910246;28;20045;-65
2023/05/21 05:37:28;;;;;;;3.78;3.13;;;;;;;24.25;42.00;101192.25;20910350;28;20041;-64
2023/05/21 05:47:30;;;;;;;4.70;3.95;;;;;;;24.33;42.07;101215.94;20909765;28;20470;-65
2023/05/21 05:57:31;;;;;;;4.72;4.20;;;;;;;24.30;41.99;101216.50;20908008;28;20095;-64
2023/05/21 06:07:32;;;;;;;5.13;4.63;;;;;;;24.29;40.59;101237.22;20908865;28;20115;-65
2023/05/21 06:17:34;;;;;;;5.40;4.90;;;;;;;24.32;40.41;101234.66;20908697;28;20045;-65
2023/05/21 06:27:36;;;;;;;5.82;5.22;;;;;;;24.18;40.60;101230.88;20908271;28;20041;-65
2023/05/21 06:37:41;;;;;;;6.68;5.97;;;;;;;24.31;40.47;101271.31;20907889;28;20041;-65
2023/05/21 06:47:43;;;;;;;6.68;5.97;;;;;;;24.22;40.65;101248.75;20921669;28;20037;-65
2023/05/21 06:57:44;;;;;;;7.90;6.60;;;;;;;24.27;42.18;101240.31;20921692;28;20040;-65
2023/05/21 07:07:46;;;;;;;7.43;6.18;;;;;;;24.27;41.05;101239.47;20921257;28;20033;-65
2023/05/21 07:17:47;;;;;;;9.15;7.82;;;;;;;24.21;42.46;101235.06;20920345;28;20053;-65
2023/05/21 07:27:48;;;;;;;8.93;8.02;;;;;;;24.09;41.50;101215.91;20919656;28;20045;-65
2023/05/21 07:37:53;;;;;;;9.18;7.75;;;;;;;24.26;42.03;101246.19;20919177;28;20106;-65
2023/05/21 07:47:54;;;;;;;10.00;8.30;;;;;;;24.26;41.69;101235.84;20917997;28;20107;-65
2023/05/21 07:57:56;;;;;;;10.80;8.85;;;;;;;24.26;41.73;101244.22;20917361;28;20041;-65
2023/05/21 08:07:57;;;;;;;9.63;8.60;;;;;;;24.25;41.48;101247.34;20916640;28;20110;-65
2023/05/21 08:17:58;;;;;;;12.15;9.70;;;;;;;24.19;41.92;101254.94;20915828;28;20048;-65
2023/05/21 08:28:00;;;;;;;11.82;8.88;;;;;;;24.25;41.56;101264.94;20914720;28;20044;-65
2023/05/21 08:38:04;;;;;;;10.40;9.30;;;;;;;24.24;41.57;101257.69;20913757;28;20088;-65
2023/05/21 08:48:07;;;;;;;10.82;9.70;;;;;;;24.00;41.53;101240.84;20913448;28;20032;-64
2023/05/21 08:58:12;;;;;;;10.93;8.95;;;;;;;24.14;41.40;101262.53;20912697;28;20484;-65
2023/05/21 09:08:34;;;;;;;10.23;8.85;;;;;;;24.08;41.34;101289.72;20911407;28;20041;-65
2023/05/21 09:18:35;;;;;;;11.93;9.88;;;;;;;24.16;41.53;101321.81;20911740;28;20045;-65
2023/05/21 09:28:36;;;;;;;11.20;10.00;;;;;;;24.13;41.51;101306.44;20909154;28;20033;-64
2023/05/21 09:38:41;;;;;;;11.50;9.90;;;;;;;24.15;41.47;101337.75;20910046;28;20106;-65
2023/05/21 09:48:42;;;;;;;10.32;9.27;;;;;;;23.92;41.35;101322.56;20909763;28;20060;-65
2023/05/21 09:58:44;;;;;;;11.35;9.88;;;;;;;24.12;41.33;101382.25;20909559;28;20025;-65
2023/05/21 10:08:51;;;;;;;12.65;10.35;;;;;;;24.09;41.38;101400.41;20909267;28;20065;-65
2023/05/21 10:18:54;;;;;;;11.43;10.05;;;;;;;24.04;41.47;101403.25;20917005;28;20098;-65
2023/05/21 10:28:58;;;;;;;11.00;9.80;;;;;;;23.98;41.20;101405.25;20920867;28;20075;-65
2023/05/21 10:39:06;;;;;;;10.80;9.55;;;;;;;23.93;41.01;101418.44;20923782;28;20107;-65
2023/05/21 10:49:41;;;;;;;11.83;9.73;;;;;;;24.05;41.05;101450.50;20922821;28;20400;-65
2023/05/21 10:59:46;;;;;;;11.65;10.40;;;;;;;24.05;40.86;101432.88;20921687;28;20121;-65
2023/05/21 11:09:52;;;;;;;11.73;10.18;;;;;;;24.07;41.08;101436.22;20920620;28;20083;-66
2023/05/21 11:20:04;;;;;;;10.63;9.52;;;;;;;24.01;41.25;101445.78;20920027;28;20554;-65
2023/05/21 11:30:13;;;;;;;11.07;9.80;;;;;;;23.93;41.01;101457.56;20918341;28;20041;-65
2023/05/21 11:40:17;;;;;;;13.55;11.18;;;;;;;24.04;40.98;101475.94;20918400;28;20550;-65
2023/05/21 11:50:19;;;;;;;12.90;10.27;;;;;;;23.94;40.93;101481.59;20917952;28;20033;-65
2023/05/21 12:00:20;;;;;;;11.50;10.30;;;;;;;23.86;40.97;101474.66;20917312;28;20056;-65
2023/05/21 12:10:22;;;;;;;10.50;9.38;;;;;;;23.91;41.00;101487.75;20916256;28;20546;-64
2023/05/21 12:20:27;;;;;;;11.15;9.48;;;;;;;23.75;41.09;101464.66;20915690;28;20114;-65
2023/05/21 12:30:29;;;;;;;12.40;10.07;;;;;;;23.60;41.43;101440.41;20914630;28;20045;-65
2023/05/21 12:40:37;;;;;;;10.73;9.63;;;;;;;23.86;41.29;101480.25;20912572;28;20114;-65
2023/05/21 12:50:39;;;;;;;10.88;9.77;;;;;;;23.87;41.06;101486.66;20913095;28;20037;-65
2023/05/21 13:00:46;;;;;;;10.68;9.10;;;;;;;23.66;40.75;101447.66;20958748;28;20102;-65
2023/05/21 13:10:50;;;;;;;11.75;9.73;;;;;;;23.86;41.06;101473.81;20994295;28;20541;-65
2023/05/21 13:20:52;;;;;;;10.48;9.00;;;;;;;23.17;41.04;101339.50;20994051;28;20048;-65
2023/05/21 13:30:54;;;;;;;10.32;8.95;;;;;;;23.91;40.92;101465.41;20992566;28;20173;-65
2023/05/21 13:40:56;;;;;;;9.85;8.85;;;;;;;23.90;40.92;101449.75;20992851;28;20052;-65
2023/05/21 13:50:57;;;;;;;11.55;9.63;;;;;;;23.81;41.00;101427.16;20998443;28;20641;-65
2023/05/21 14:00:59;;;;;;;9.55;8.57;;;;;;;23.97;40.93;101453.09;21009445;28;20499;-65
2023/05/21 14:11:00;;;;;;;10.48;8.73;;;;;;;23.99;40.75;101467.59;21008569;28;20044;-65
2023/05/21 14:21:02;;;;;;;9.85;8.27;;;;;;;24.00;40.50;101472.06;21007876;28;20048;-64
2023/05/21 14:31:08;;;;;;;10.07;8.68;;;;;;;23.99;40.55;101473.19;21006738;28;20479;-64
2023/05/21 14:41:10;;;;;;;8.90;7.90;;;;;;;24.01;41.05;101476.53;21006315;28;20052;-65
2023/05/21 14:51:12;;;;;;;9.90;8.30;;;;;;;24.03;40.50;101477.06;21005263;28;20565;-64
2023/05/21 15:01:13;;;;;;;8.55;7.65;;;;;;;23.99;40.63;101473.19;21002303;28;20045;-64
2023/05/21 15:11:15;;;;;;;8.35;7.15;;;;;;;24.03;40.78;101482.66;21003969;28;20396;-64
2023/05/21 15:21:16;;;;;;;8.40;7.45;;;;;;;23.92;40.29;101448.34;21002761;28;20399;-64
2023/05/21 15:31:18;;;;;;;9.07;8.15;;;;;;;24.04;41.03;101465.59;21001497;28;20033;-66
2023/05/21 15:41:20;;;;;;;8.68;7.72;;;;;;;23.99;40.58;101462.00;21001661;28;20041;-64
2023/05/21 15:51:24;;;;;;;8.90;7.60;;;;;;;24.07;40.85;101455.81;21001071;28;20464;-64
2023/05/21 16:01:27;;;;;;;8.32;7.30;;;;;;;24.02;40.59;101459.47;20999595;28;20037;-65
2023/05/21 16:11:28;;;;;;;7.70;6.88;;;;;;;24.05;40.73;101441.25;20999310;28;20082;-64
2023/05/21 16:21:30;;;;;;;8.20;7.07;;;;;;;24.11;40.62;101442.91;20998560;28;20037;-65
2023/05/21 16:31:32;;;;;;;8.35;7.32;;;;;;;24.12;40.45;101439.00;20997888;28;20484;-65
2023/05/21 16:41:33;;;;;;;8.30;7.50;;;;;;;24.18;40.51;101425.78;20996890;28;20470;-65
2023/05/21 16:51:35;;;;;;;9.13;7.07;;;;;;;24.17;40.51;101413.78;20996348;28;20067;-65
2023/05/21 17:01:36;;;;;;;7.85;7.03;;;;;;;24.18;40.38;101407.06;20995203;28;20476;-64
2023/05/21 17:11:37;;;;;;;8.70;7.45;;;;;;;24.19;40.49;101400.34;20994877;28;20032;-64
2023/05/21 17:21:38;;;;;;;8.65;7.70;;;;;;;24.21;40.36;101397.25;20994399;28;20097;-64
2023/05/21 17:31:40;;;;;;;8.80;7.85;;;;;;;24.24;40.24;101385.50;20992899;28;20047;-64
2023/05/21 17:41:41;;;;;;;8.20;7.13;;;;;;;24.06;40.34;101354.31;20993287;28;20028;-65
2023/05/21 17:51:44;;;;;;;8.43;7.32;;;;;;;24.05;39.94;101333.09;20991562;28;20041;-64
2023/05/21 18:01:48;;;;;;;8.73;7.65;;;;;;;24.28;40.24;101367.84;20992381;28;20078;-65
2023/05/21 18:11:49;;;;;;;7.78;6.97;;;;;;;24.24;40.17;101346.34;20992213;28;20041;-64
2023/05/21 18:21:51;;;;;;;8.80;7.45;;;;;;;24.32;40.02;101338.13;20991310;28;20045;-64
2023/05/21 18:31:52;;;;;;;8.35;7.55;;;;;;;24.16;39.84;101305.88;20990333;28;20430;-64
2023/05/21 18:41:54;;;;;;;8.32;7.50;;;;;;;24.31;40.09;101336.47;21002133;28;20446;-65
2023/05/21 18:51:55;;;;;;;8.90;8.00;;;;;;;24.26;40.02;101316.94;21005550;28;20048;-65
2023/05/21 19:01:57;;;;;;;8.20;7.03;;;;;;;24.33;40.05;101325.84;21004802;28;20036;-65
2023/05/21 19:12:01;;;;;;;7.78;6.75;;;;;;;24.07;39.93;101262.91;21004329;28;20029;-65
2023/05/21 19:22:11;;;;;;;8.15;7.35;;;;;;;24.38;39.94;101301.78;21003261;28;20041;-65
2023/05/21 19:32:15;;;;;;;8.07;7.15;;;;;;;24.33;39.92;101294.25;21002870;28;20055;-66
2023/05/21 19:42:20;;;;;;;9.00;8.10;;;;;;;24.31;40.06;101294.50;21001462;28;20099;-65
2023/05/21 19:52:21;;;;;;;8.05;7.25;;;;;;;24.40;39.63;101293.91;21000696;28;20044;-65
2023/05/21 20:02:27;;;;;;;7.47;6.78;;;;;;;24.38;39.96;101291.41;21000291;28;20041;-65
2023/05/21 20:12:28;;;;;;;7.60;6.80;;;;;;;24.38;39.84;101290.59;20999656;28;20041;-65
2023/05/21 20:22:32;;;;;;;8.27;7.45;;;;;;;24.41;39.79;101296.41;20997277;28;20045;-65
2023/05/21 20:32:33;;;;;;;7.95;7.13;;;;;;;24.39;39.67;101286.66;20997118;28;20438;-64
2023/05/21 20:42:35;;;;;;;8.32;7.47;;;;;;;24.42;40.09;101298.09;20996260;28;20090;-64
2023/05/21 20:52:39;;;;;;;8.43;7.20;;;;;;;24.35;39.71;101270.41;20996408;28;20132;-65
2023/05/21 21:02:41;;;;;;;8.32;7.38;;;;;;;24.50;39.62;101304.97;20994923;28;20049;-65
2023/05/21 21:12:42;;;;;;;8.93;7.85;;;;;;;24.52;39.53;101303.56;20994158;28;20036;-66
2023/05/21 21:22:44;;;;;;;8.88;7.50;;;;;;;24.54;39.41;101308.84;20994247;28;20090;-64
2023/05/21 21:32:48;;;;;;;9.88;7.95;;;;;;;24.55;39.35;101307.72;20993274;28;20106;-65
2023/05/21 21:42:49;;;;;;;10.93;8.73;;;;;;;24.48;39.21;101307.25;20993266;28;20048;-65
2023/05/21 21:52:54;;;;;;;9.30;8.23;;;;;;;24.33;39.09;101267.09;20992836;28;20545;-65
2023/05/21 22:02:56;;;;;;;9.30;7.75;;;;;;;24.56;39.28;101303.81;20992003;28;20525;-65
2023/05/21 22:12:57;;;;;;;9.32;8.23;;;;;;;24.56;39.57;101312.22;20999006;28;20049;-67
2023/05/21 22:22:59;;;;;;;9.38;8.40;;;;;;;24.58;39.18;101318.31;21007850;28;20044;-64
2023/05/21 22:33:00;;;;;;;9.13;8.02;;;;;;;24.53;39.22;101310.00;21006903;28;20044;-65
2023/05/21 22:43:02;;;;;;;9.23;8.23;;;;;;;24.54;39.53;101323.66;21006525;28;20075;-65
2023/05/21 22:53:03;;;;;;;10.48;8.75;;;;;;;24.59;39.33;101336.78;21005705;28;20041;-66
2023/05/21 23:03:05;;;;;;;9.60;8.60;;;;;;;24.63;39.38;101365.84;21004542;28;20067;-65
2023/05/21 23:13:06;;;;;;;10.32;8.88;;;;;;;24.55;39.02;101355.28;21004606;28;20093;-65
2023/05/21 23:23:08;;;;;;;9.32;8.13;;;;;;;24.50;39.60;101372.94;21002744;28;20044;-65
2023/05/21 23:33:10;;;;;;;9.73;8.75;;;;;;;24.63;39.25;101405.00;21002646;28;20040;-66
2023/05/21 23:43:11;;;;;;;9.77;8.43;;;;;;;24.65;39.24;101410.31;21001982;28;20460;-67
2023/05/21 23:53:12;;;;;;;10.18;8.70;;;;;;;24.57;39.15;101415.44;21000681;28;20041;-66
